createdAt,value
2022-08-23T00:01:47.094Z,91564.91
2022-08-23T00:04:22.345Z,91566.34
2022-08-23T00:07:05.013Z,91565.66
2022-08-23T00:09:37.962Z,91566.00
2022-08-23T00:12:13.694Z,91572.63
2022-08-23T00:14:48.526Z,91551.41
2022-08-23T00:17:33.278Z,91573.38
2022-08-23T00:20:09.429Z,91563.97
2022-08-23T00:22:42.305Z,91561.75
2022-08-23T00:25:15.344Z,91563.78
2022-08-23T00:27:47.810Z,91562.25
2022-08-23T00:30:20.474Z,91556.91
2022-08-23T00:32:53.859Z,91556.00
2022-08-23T00:35:30.702Z,91548.19
2022-08-23T00:38:32.982Z,91551.44
2022-08-23T00:40:56.131Z,91550.97
2022-08-23T00:43:50.799Z,91556.50
2022-08-23T00:46:57.378Z,91546.72
2022-08-23T00:49:32.151Z,91556.63
2022-08-23T00:52:09.747Z,91556.41
2022-08-23T00:54:43.126Z,91555.38
2022-08-23T00:57:18.535Z,91561.38
2022-08-23T00:59:51.208Z,91549.69
2022-08-23T01:02:24.547Z,91563.91
2022-08-23T01:04:59.570Z,91567.50
2022-08-23T01:07:46.230Z,91565.66
2022-08-23T01:10:24.671Z,91563.56
2022-08-23T01:13:05.414Z,91567.03
2022-08-23T01:15:43.874Z,91567.47
2022-08-23T01:18:21.133Z,91563.44
2022-08-23T01:20:58.537Z,91564.19
2022-08-23T01:23:40.179Z,91564.75
2022-08-23T01:26:14.115Z,91564.66
2022-08-23T01:28:48.164Z,91566.28
2022-08-23T01:31:23.313Z,91562.41
2022-08-23T01:33:58.861Z,91568.00
2022-08-23T01:36:31.535Z,91575.97
2022-08-23T01:39:07.263Z,91559.34
2022-08-23T01:41:40.343Z,91557.94
2022-08-23T01:44:14.745Z,91553.03
2022-08-23T01:46:47.543Z,91554.13
2022-08-23T01:49:20.121Z,91543.97
2022-08-23T01:51:52.663Z,91551.94
2022-08-23T01:54:25.955Z,91548.38
2022-08-23T01:56:58.528Z,91546.88
2022-08-23T01:59:31.383Z,91551.44
2022-08-23T02:02:05.197Z,91549.50
2022-08-23T02:04:37.787Z,91557.88
2022-08-23T02:07:10.155Z,91553.50
2022-08-23T02:09:44.027Z,91557.06
2022-08-23T02:12:16.459Z,91552.34
2022-08-23T02:14:49.183Z,91561.34
2022-08-23T02:17:27.484Z,91563.22
2022-08-23T02:20:01.503Z,91566.91
2022-08-23T02:22:33.960Z,91565.31
2022-08-23T02:25:08.550Z,91568.47
2022-08-23T02:27:42.975Z,91566.63
2022-08-23T02:30:18.153Z,91567.81
2022-08-23T02:32:51.323Z,91568.97
2022-08-23T02:35:25.098Z,91579.44
2022-08-23T02:37:57.546Z,91578.41
2022-08-23T02:40:30.837Z,91577.84
2022-08-23T02:43:04.171Z,91582.03
2022-08-23T02:45:37.563Z,91586.19
2022-08-23T02:48:10.116Z,91594.75
2022-08-23T02:50:58.931Z,91587.75
2022-08-23T02:53:32.315Z,91590.59
2022-08-23T02:56:17.034Z,91586.78
2022-08-23T02:58:54.946Z,91594.59
2022-08-23T03:01:33.875Z,91580.25
2022-08-23T03:04:18.162Z,91580.72
2022-08-23T03:06:50.849Z,91573.16
2022-08-23T03:09:23.591Z,91573.94
2022-08-23T03:11:56.992Z,91579.53
2022-08-23T03:14:29.498Z,91573.50
2022-08-23T03:17:04.098Z,91571.22
2022-08-23T03:19:36.567Z,91570.09
2022-08-23T03:22:09.158Z,91571.56
2022-08-23T03:24:41.810Z,91572.94
2022-08-23T03:27:15.558Z,91562.25
2022-08-23T03:29:49.721Z,91568.34
2022-08-23T03:32:22.694Z,91572.22
2022-08-23T03:34:58.352Z,91574.78
2022-08-23T03:37:30.915Z,91587.53
2022-08-23T03:40:06.312Z,91586.84
2022-08-23T03:42:39.467Z,91595.84
2022-08-23T03:45:12.336Z,91601.38
2022-08-23T03:47:44.820Z,91614.44
2022-08-23T03:50:17.399Z,91624.88
2022-08-23T03:52:50.118Z,91619.53
2022-08-23T03:55:22.807Z,91640.84
2022-08-23T03:57:57.282Z,91644.34
2022-08-23T04:00:30.351Z,91662.41
2022-08-23T04:03:02.995Z,91668.59
2022-08-23T04:05:38.126Z,91682.78
2022-08-23T04:08:13.574Z,91688.13
2022-08-23T04:10:48.022Z,91675.41
2022-08-23T04:13:22.476Z,91681.41
2022-08-23T04:15:54.944Z,91681.25
2022-08-23T04:18:29.347Z,91686.09
2022-08-23T04:21:05.977Z,91687.38
2022-08-23T04:23:39.319Z,91692.97
2022-08-23T04:26:12.143Z,91688.13
2022-08-23T04:28:48.531Z,91677.94
2022-08-23T04:31:22.343Z,91688.66
2022-08-23T04:33:56.161Z,91688.47
2022-08-23T04:36:34.511Z,91686.66
2022-08-23T04:39:08.891Z,91687.13
2022-08-23T04:42:00.300Z,91686.84
2022-08-23T04:44:35.267Z,91686.25
2022-08-23T04:47:08.359Z,91685.56
2022-08-23T04:49:41.160Z,91688.28
2022-08-23T04:52:18.605Z,91687.69
2022-08-23T04:54:52.596Z,91692.09
2022-08-23T04:57:35.531Z,91694.28
2022-08-23T05:00:11.778Z,91696.19
2022-08-23T05:02:47.790Z,91698.13
2022-08-23T05:05:20.440Z,91702.38
2022-08-23T05:07:53.102Z,91703.03
2022-08-23T05:10:25.684Z,91699.31
2022-08-23T05:12:59.343Z,91693.28
2022-08-23T05:15:32.471Z,91694.97
2022-08-23T05:18:09.635Z,91685.69
2022-08-23T05:20:42.243Z,91692.56
2022-08-23T05:23:14.947Z,91698.66
2022-08-23T05:26:02.382Z,91695.69
2022-08-23T05:28:48.366Z,91687.19
2022-08-23T05:31:27.086Z,91688.84
2022-08-23T05:34:02.792Z,91696.56
2022-08-23T05:36:48.246Z,91694.81
2022-08-23T05:39:36.013Z,91692.97
2022-08-23T05:42:14.558Z,91684.53
2022-08-23T05:44:47.670Z,91687.81
2022-08-23T05:47:26.338Z,91698.19
2022-08-23T05:50:09.023Z,91693.13
2022-08-23T05:52:42.858Z,91701.19
2022-08-23T05:55:16.195Z,91692.34
2022-08-23T05:57:59.837Z,91704.63
2022-08-23T06:00:37.868Z,91707.94
2022-08-23T06:03:12.690Z,91712.53
2022-08-23T06:05:45.898Z,91715.63
2022-08-23T06:08:18.849Z,91717.78
2022-08-23T06:10:59.647Z,91720.25
2022-08-23T06:13:34.827Z,91717.72
2022-08-23T06:16:14.930Z,91713.72
2022-08-23T06:18:50.278Z,91704.72
2022-08-23T06:21:48.812Z,91716.00
2022-08-23T06:24:29.800Z,91721.47
2022-08-23T06:27:17.458Z,91731.81
2022-08-23T06:29:50.359Z,91735.47
2022-08-23T06:32:50.188Z,91734.22
2022-08-23T06:36:03.879Z,91741.19
2022-08-23T06:38:56.667Z,91742.38
2022-08-23T06:41:48.321Z,91739.59
2022-08-23T06:44:32.187Z,91746.84
2022-08-23T06:47:36.861Z,91740.78
2022-08-23T06:50:09.954Z,91745.81
2022-08-23T06:53:01.812Z,91740.22
2022-08-23T06:56:08.566Z,91739.69
2022-08-23T06:58:53.798Z,91741.72
2022-08-23T07:01:51.914Z,91742.53
2022-08-23T07:04:34.238Z,91749.91
2022-08-23T07:07:25.148Z,91747.72
2022-08-23T07:10:13.178Z,91749.31
2022-08-23T07:12:45.706Z,91757.69
2022-08-23T07:15:18.939Z,91749.78
2022-08-23T07:17:51.782Z,91754.72
2022-08-23T07:20:24.346Z,91758.03
2022-08-23T07:22:57.085Z,91747.28
2022-08-23T07:25:32.030Z,91750.38
2022-08-23T07:28:11.934Z,91753.16
2022-08-23T07:30:46.180Z,91741.81
2022-08-23T07:33:19.880Z,91748.06
2022-08-23T07:36:29.102Z,91751.94
2022-08-23T07:39:04.354Z,91755.41
2022-08-23T07:41:38.414Z,91750.13
2022-08-23T07:44:12.590Z,91760.03
2022-08-23T07:46:50.787Z,91763.09
2022-08-23T07:49:23.538Z,91765.03
2022-08-23T07:52:03.726Z,91768.44
2022-08-23T07:54:36.651Z,91770.41
2022-08-23T07:57:29.821Z,91773.47
2022-08-23T08:00:12.206Z,91774.59
2022-08-23T08:03:04.627Z,91773.50
2022-08-23T08:05:56.767Z,91772.69
2022-08-23T08:08:29.219Z,91767.69
2022-08-23T08:11:01.716Z,91776.81
2022-08-23T08:13:37.468Z,91779.84
2022-08-23T08:16:21.212Z,91776.78
2022-08-23T08:18:55.458Z,91779.41
2022-08-23T08:21:47.594Z,91787.41
2022-08-23T08:24:31.277Z,91798.03
2022-08-23T08:27:08.766Z,91801.84
2022-08-23T08:29:43.218Z,91800.34
2022-08-23T08:32:15.837Z,91795.41
2022-08-23T08:34:49.503Z,91803.06
2022-08-23T08:37:22.792Z,91790.84
2022-08-23T08:39:55.664Z,91799.66
2022-08-23T08:42:51.346Z,91798.19
2022-08-23T08:45:27.170Z,91789.84
2022-08-23T08:48:08.268Z,91784.19
2022-08-23T08:50:55.640Z,91780.47
2022-08-23T08:53:34.026Z,91790.72
2022-08-23T08:56:22.011Z,91777.09
2022-08-23T08:59:05.847Z,91781.66
2022-08-23T09:01:39.980Z,91778.59
2022-08-23T09:04:12.722Z,91777.09
2022-08-23T09:06:54.497Z,91780.88
2022-08-23T09:09:53.886Z,91766.44
2022-08-23T09:12:37.123Z,91756.91
2022-08-23T09:15:19.370Z,91759.19
2022-08-23T09:17:59.263Z,91740.50
2022-08-23T09:20:34.852Z,91750.75
2022-08-23T09:23:12.446Z,91746.47
2022-08-23T09:25:52.406Z,91739.91
2022-08-23T09:28:29.835Z,91744.50
2022-08-23T09:31:03.780Z,91743.75
2022-08-23T09:33:40.174Z,91746.09
2022-08-23T09:36:17.713Z,91747.06
2022-08-23T09:38:55.151Z,91751.38
2022-08-23T09:41:35.891Z,91754.00
2022-08-23T09:44:12.913Z,91753.53
2022-08-23T09:46:46.018Z,91758.28
2022-08-23T09:49:26.385Z,91759.94
2022-08-23T09:52:16.013Z,91754.16
2022-08-23T09:55:02.270Z,91752.53
2022-08-23T09:57:37.114Z,91755.06
2022-08-23T10:00:28.267Z,91754.66
2022-08-23T10:03:23.564Z,91728.00
2022-08-23T10:06:00.853Z,91756.31
2022-08-23T10:08:52.270Z,91758.13
2022-08-23T10:11:29.482Z,91759.22
2022-08-23T10:14:02.719Z,91758.72
2022-08-23T10:16:41.278Z,91757.72
2022-08-23T10:19:28.621Z,91763.72
2022-08-23T10:22:10.807Z,91761.38
2022-08-23T10:24:54.514Z,91762.78
2022-08-23T10:28:04.888Z,91768.31
2022-08-23T10:30:51.385Z,91762.19
2022-08-23T10:33:36.168Z,91759.25
2022-08-23T10:36:16.053Z,91759.19
2022-08-23T10:38:56.877Z,91767.03
2022-08-23T10:41:51.271Z,91758.50
2022-08-23T10:44:28.545Z,91756.81
2022-08-23T10:47:26.739Z,91759.91
2022-08-23T10:50:05.731Z,91748.25
2022-08-23T10:52:45.636Z,91753.34
2022-08-23T10:55:35.359Z,91753.66
2022-08-23T10:58:15.134Z,91752.72
2022-08-23T11:00:49.574Z,91753.25
2022-08-23T11:03:29.075Z,91738.69
2022-08-23T11:06:41.130Z,91745.13
2022-08-23T11:09:51.982Z,91752.16
2022-08-23T11:12:30.294Z,91744.75
2022-08-23T11:15:10.378Z,91750.06
2022-08-23T11:18:00.034Z,91746.41
2022-08-23T11:20:59.395Z,91754.69
2022-08-23T11:23:43.590Z,91749.81
2022-08-23T11:26:37.069Z,91750.28
2022-08-23T11:29:31.176Z,91751.88
2022-08-23T11:32:38.046Z,91750.72
2022-08-23T11:35:37.184Z,91752.44
2022-08-23T11:38:37.263Z,91752.31
2022-08-23T11:41:22.970Z,91747.09
2022-08-23T11:44:21.776Z,91741.88
2022-08-23T11:47:03.172Z,91739.31
2022-08-23T11:49:55.694Z,91734.81
2022-08-23T11:52:46.564Z,91734.66
2022-08-23T11:55:35.252Z,91737.47
2022-08-23T11:58:22.862Z,91727.03
2022-08-23T12:01:06.104Z,91723.88
2022-08-23T12:03:56.139Z,91726.13
2022-08-23T12:06:50.445Z,91729.63
2022-08-23T12:09:55.336Z,91734.13
2022-08-23T12:12:38.772Z,91730.59
2022-08-23T12:15:16.592Z,91722.25
2022-08-23T12:18:06.841Z,91731.22
2022-08-23T12:20:41.866Z,91723.50
2022-08-23T12:23:17.985Z,91731.91
2022-08-23T12:26:04.849Z,91718.41
2022-08-23T12:28:45.255Z,91722.69
2022-08-23T12:31:25.103Z,91721.31
2022-08-23T12:34:15.281Z,91703.59
2022-08-23T12:36:59.622Z,91709.28
2022-08-23T12:39:35.404Z,91708.25
2022-08-23T12:42:14.977Z,91707.56
2022-08-23T12:45:00.609Z,91715.59
2022-08-23T12:47:34.311Z,91707.75
2022-08-23T12:50:15.838Z,91705.03
2022-08-23T12:52:58.973Z,91704.22
2022-08-23T12:55:35.238Z,91702.16
2022-08-23T12:58:09.216Z,91712.91
2022-08-23T13:00:51.338Z,91712.97
2022-08-23T13:03:28.670Z,91711.47
2022-08-23T13:06:06.835Z,91706.44
2022-08-23T13:08:49.485Z,91707.75
2022-08-23T13:11:31.940Z,91710.97
2022-08-23T13:14:23.007Z,91702.25
2022-08-23T13:16:58.804Z,91705.09
2022-08-23T13:19:32.971Z,91700.25
2022-08-23T13:22:14.375Z,91705.47
2022-08-23T13:25:24.500Z,91704.84
2022-08-23T13:27:54.682Z,91702.72
2022-08-23T13:30:29.351Z,91704.69
2022-08-23T13:33:19.829Z,91685.19
2022-08-23T13:36:05.490Z,91703.69
2022-08-23T13:38:46.416Z,91689.47
2022-08-23T13:41:31.059Z,91703.66
2022-08-23T13:44:06.735Z,91695.00
2022-08-23T13:46:45.256Z,91690.50
2022-08-23T13:49:21.856Z,91682.19
2022-08-23T13:52:38.088Z,91692.63
2022-08-23T13:55:00.763Z,91688.91
2022-08-23T13:57:36.468Z,91700.31
2022-08-23T14:00:10.787Z,91716.31
2022-08-23T14:02:48.113Z,91731.56
2022-08-23T14:05:22.109Z,91728.63
2022-08-23T14:07:55.711Z,91730.59
2022-08-23T14:10:28.206Z,91726.41
2022-08-23T14:13:01.853Z,91736.66
2022-08-23T14:18:26.862Z,91751.88
2022-08-23T14:20:59.759Z,91753.03
2022-08-23T14:23:32.214Z,91763.28
2022-08-23T14:26:04.699Z,91765.94
2022-08-23T14:28:40.335Z,91768.97
2022-08-23T14:31:19.127Z,91779.72
2022-08-23T14:33:51.642Z,91783.91
2022-08-23T14:36:24.102Z,91788.06
2022-08-23T14:39:02.436Z,91790.38
2022-08-23T14:41:35.081Z,91789.66
2022-08-23T14:44:08.202Z,91797.59
2022-08-23T14:46:40.778Z,91796.47
2022-08-23T14:49:14.026Z,91802.91
2022-08-23T14:51:49.478Z,91805.13
2022-08-23T14:54:23.814Z,91797.56
2022-08-23T14:56:56.924Z,91793.75
2022-08-23T14:59:30.002Z,91788.44
2022-08-23T15:02:04.060Z,91796.78
2022-08-23T15:04:38.639Z,91808.13
2022-08-23T15:07:19.262Z,91792.56
2022-08-23T15:09:54.190Z,91783.84
2022-08-23T15:15:21.670Z,91765.19
2022-08-23T15:17:58.045Z,91767.03
2022-08-23T15:20:33.375Z,91754.88
2022-08-23T15:23:07.529Z,91754.88
2022-08-23T15:25:43.322Z,91753.75
2022-08-23T15:28:17.396Z,91759.78
2022-08-23T15:30:51.271Z,91752.16
2022-08-23T15:33:30.684Z,91754.06
2022-08-23T15:36:04.377Z,91753.66
2022-08-23T15:38:38.410Z,91756.25
2022-08-23T15:41:11.623Z,91747.13
2022-08-23T15:43:44.539Z,91741.41
2022-08-23T15:46:20.395Z,91732.72
2022-08-23T15:48:55.893Z,91739.53
2022-08-23T15:51:28.619Z,91731.63
2022-08-23T15:54:02.114Z,91733.91
2022-08-23T15:56:39.670Z,91741.84
2022-08-23T15:59:14.479Z,91742.25
2022-08-23T16:01:48.059Z,91743.75
2022-08-23T16:04:20.429Z,91745.97
2022-08-23T16:06:52.908Z,91752.00
2022-08-23T16:09:26.469Z,91757.31
2022-08-23T16:12:00.355Z,91760.25
2022-08-23T16:14:32.869Z,91770.00
2022-08-23T16:17:07.988Z,91762.84
2022-08-23T16:19:40.415Z,91772.00
2022-08-23T16:22:13.264Z,91776.94
2022-08-23T16:24:45.743Z,91775.00
2022-08-23T16:27:18.224Z,91765.50
2022-08-23T16:29:50.603Z,91770.78
2022-08-23T16:32:23.711Z,91778.28
2022-08-23T16:34:56.121Z,91792.19
2022-08-23T16:37:28.507Z,91801.56
2022-08-23T16:40:00.911Z,91806.50
2022-08-23T16:42:33.457Z,91806.91
2022-08-23T16:45:07.419Z,91809.59
2022-08-23T16:47:43.160Z,91805.44
2022-08-23T16:50:17.400Z,91803.13
2022-08-23T16:52:50.668Z,91795.47
2022-08-23T16:55:23.762Z,91795.50
2022-08-23T16:57:56.314Z,91802.38
2022-08-23T17:00:28.747Z,91796.34
2022-08-23T17:03:02.057Z,91798.25
2022-08-23T17:05:35.056Z,91813.78
2022-08-23T17:08:07.518Z,91813.41
2022-08-23T17:10:40.210Z,91819.81
2022-08-23T17:13:14.850Z,91822.72
2022-08-23T17:15:47.258Z,91826.53
2022-08-23T17:18:20.347Z,91835.25
2022-08-23T17:20:52.874Z,91831.84
2022-08-23T17:23:25.370Z,91828.75
2022-08-23T17:25:58.003Z,91838.28
2022-08-23T17:28:31.608Z,91841.53
2022-08-23T17:31:05.182Z,91845.91
2022-08-23T17:33:39.203Z,91848.59
2022-08-23T17:36:24.543Z,91849.44
2022-08-23T17:38:57.331Z,91847.91
2022-08-23T17:41:29.733Z,91852.44
2022-08-23T17:44:07.953Z,91852.09
2022-08-23T17:46:42.945Z,91861.44
2022-08-23T17:49:17.397Z,91870.38
2022-08-23T17:51:49.907Z,91868.09
2022-08-23T17:54:22.355Z,91870.34
2022-08-23T17:56:54.832Z,91880.94
2022-08-23T17:59:27.791Z,91883.63
2022-08-23T18:02:00.688Z,91890.34
2022-08-23T18:04:33.902Z,91903.19
2022-08-23T18:07:06.728Z,91890.63
2022-08-23T18:09:43.784Z,91914.09
2022-08-23T18:12:22.479Z,91911.09
2022-08-23T18:14:55.353Z,91914.50
2022-08-23T18:17:28.649Z,91907.72
2022-08-23T18:20:02.332Z,91909.31
2022-08-23T18:22:36.667Z,91905.84
2022-08-23T18:25:12.583Z,91912.34
2022-08-23T18:28:03.296Z,91912.75
2022-08-23T18:30:37.700Z,91905.56
2022-08-23T18:33:12.709Z,91918.13
2022-08-23T18:35:47.426Z,91922.72
2022-08-23T18:38:19.871Z,91936.69
2022-08-23T18:40:52.549Z,91934.34
2022-08-23T18:43:27.546Z,91936.19
2022-08-23T18:46:10.904Z,91933.19
2022-08-23T18:48:43.351Z,91934.69
2022-08-23T18:51:27.559Z,91908.53
2022-08-23T18:54:00.347Z,91898.66
2022-08-23T18:56:34.443Z,91896.78
2022-08-23T18:59:10.155Z,91893.72
2022-08-23T19:01:45.176Z,91877.03
2022-08-23T19:04:18.373Z,91876.22
2022-08-23T19:06:54.206Z,91868.63
2022-08-23T19:09:26.892Z,91872.00
2022-08-23T19:12:00.475Z,91864.38
2022-08-23T19:14:35.027Z,91872.28
2022-08-23T19:17:07.797Z,91879.72
2022-08-23T19:19:40.188Z,91860.41
2022-08-23T19:22:13.854Z,91863.97
2022-08-23T19:24:47.511Z,91859.88
2022-08-23T19:27:20.020Z,91870.44
2022-08-23T19:29:53.115Z,91864.44
2022-08-23T19:32:25.551Z,91860.22
2022-08-23T19:34:58.068Z,91865.84
2022-08-23T19:37:31.299Z,91866.75
2022-08-23T19:40:07.239Z,91865.91
2022-08-23T19:42:39.948Z,91866.88
2022-08-23T19:45:13.181Z,91871.41
2022-08-23T19:47:45.727Z,91873.28
2022-08-23T19:50:24.023Z,91879.16
2022-08-23T19:52:57.603Z,91887.00
2022-08-23T19:55:31.337Z,91887.28
2022-08-23T19:58:05.192Z,91892.19
2022-08-23T20:00:38.908Z,91882.59
2022-08-23T20:03:11.475Z,91893.91
2022-08-23T20:05:43.892Z,91888.91
2022-08-23T20:08:16.942Z,91897.22
2022-08-23T20:10:49.327Z,91916.38
2022-08-23T20:13:22.690Z,91933.34
2022-08-23T20:15:56.415Z,91929.53
2022-08-23T20:18:28.909Z,91935.56
2022-08-23T20:21:01.316Z,91950.25
2022-08-23T20:23:52.788Z,91957.75
2022-08-23T20:26:25.175Z,91956.06
2022-08-23T20:28:59.699Z,91956.53
2022-08-23T20:31:36.115Z,91953.75
2022-08-23T20:34:09.349Z,91953.75
2022-08-23T20:36:41.830Z,91945.91
2022-08-23T20:39:16.243Z,91940.78
2022-08-23T20:41:51.231Z,91930.72
2022-08-23T20:44:25.559Z,91927.88
2022-08-23T20:47:02.338Z,91926.44
2022-08-23T20:49:35.613Z,91932.81
2022-08-23T20:52:08.094Z,91932.38
2022-08-23T20:54:41.235Z,91930.66
2022-08-23T20:57:13.754Z,91935.66
2022-08-23T20:59:46.192Z,91936.19
2022-08-23T21:02:18.631Z,91942.31
2022-08-23T21:04:51.367Z,91945.44
2022-08-23T21:07:23.791Z,91949.63
2022-08-23T21:10:00.004Z,91949.47
2022-08-23T21:12:32.503Z,91951.91
2022-08-23T21:15:10.615Z,91955.75
2022-08-23T21:17:43.516Z,91950.72
2022-08-23T21:20:20.119Z,91951.47
2022-08-23T21:22:52.514Z,91960.72
2022-08-23T21:25:25.627Z,91965.53
2022-08-23T21:28:02.108Z,91957.34
2022-08-23T21:30:36.602Z,91956.28
2022-08-23T21:33:08.971Z,91958.59
2022-08-23T21:35:41.434Z,91951.13
2022-08-23T21:38:14.043Z,91953.78
2022-08-23T21:40:54.426Z,91953.94
2022-08-23T21:43:29.546Z,91956.25
2022-08-23T21:46:02.042Z,91957.03
2022-08-23T21:48:34.839Z,91947.81
2022-08-23T21:51:08.299Z,91946.13
2022-08-23T21:53:40.679Z,91950.22
2022-08-23T21:56:13.902Z,91939.66
2022-08-23T21:58:50.582Z,91934.72
2022-08-23T22:01:23.266Z,91940.56
2022-08-23T22:03:57.211Z,91935.34
2022-08-23T22:06:30.499Z,91940.63
2022-08-23T22:09:04.372Z,91932.06
2022-08-23T22:11:39.861Z,91932.06
2022-08-23T22:14:16.732Z,91931.38
2022-08-23T22:16:55.053Z,91929.19
2022-08-23T22:19:28.051Z,91932.66
2022-08-23T22:22:00.512Z,91940.72
2022-08-23T22:24:32.894Z,91935.03
2022-08-23T22:27:06.218Z,91931.81
2022-08-23T22:29:38.918Z,91934.56
2022-08-23T22:32:11.408Z,91930.78
2022-08-23T22:34:43.755Z,91933.59
2022-08-23T22:37:16.226Z,91933.81
2022-08-23T22:39:48.843Z,91933.16
2022-08-23T22:42:21.975Z,91928.72
2022-08-23T22:44:55.307Z,91928.31
2022-08-23T22:47:28.177Z,91927.94
2022-08-23T22:50:01.383Z,91917.88
2022-08-23T22:52:33.899Z,91917.16
2022-08-23T22:55:07.007Z,91912.53
2022-08-23T22:57:40.119Z,91909.88
2022-08-23T23:00:13.106Z,91901.41
2022-08-23T23:02:45.792Z,91904.63
2022-08-23T23:05:18.401Z,91896.91
2022-08-23T23:08:09.070Z,91903.03
2022-08-23T23:10:41.606Z,91904.78
2022-08-23T23:13:14.755Z,91891.31
2022-08-23T23:15:47.167Z,91895.47
2022-08-23T23:18:20.619Z,91894.00
2022-08-23T23:20:57.095Z,91890.31
2022-08-23T23:23:32.840Z,91885.38
2022-08-23T23:26:07.406Z,91877.88
2022-08-23T23:28:40.491Z,91874.41
2022-08-23T23:31:12.930Z,91859.69
2022-08-23T23:33:45.394Z,91868.66
2022-08-23T23:36:18.130Z,91868.88
2022-08-23T23:38:50.750Z,91865.19
2022-08-23T23:41:23.334Z,91863.72
2022-08-23T23:43:56.516Z,91859.84
2022-08-23T23:46:28.879Z,91865.13
2022-08-23T23:49:01.498Z,91865.81
2022-08-23T23:51:34.222Z,91858.59
2022-08-23T23:54:07.563Z,91856.69
2022-08-23T23:56:40.000Z,91865.47
2022-08-23T23:59:13.546Z,91869.28
